createdAt,value
2023-02-27T00:01:59.980Z,1.26
2023-02-27T00:06:11.847Z,1.26
2023-02-27T00:10:23.463Z,1.21
2023-02-27T00:14:35.487Z,1.23
2023-02-27T00:18:46.984Z,1.18
2023-02-27T00:22:58.574Z,1.19
2023-02-27T00:27:10.102Z,1.15
2023-02-27T00:31:23.016Z,1.12
2023-02-27T00:35:34.730Z,1.04
2023-02-27T00:39:46.400Z,1.09
2023-02-27T00:43:58.083Z,1.15
2023-02-27T00:48:09.704Z,1.07
2023-02-27T00:52:21.397Z,1.02
2023-02-27T00:56:33.031Z,0.99
2023-02-27T01:00:44.748Z,0.99
2023-02-27T01:04:56.335Z,1.06
2023-02-27T01:09:08.868Z,1.11
2023-02-27T01:13:20.644Z,1.10
2023-02-27T01:17:32.788Z,1.18
2023-02-27T01:21:44.836Z,1.11
2023-02-27T01:25:56.465Z,1.07
2023-02-27T01:30:11.284Z,1.11
2023-02-27T01:34:22.932Z,1.07
2023-02-27T01:38:34.537Z,1.02
2023-02-27T01:42:47.197Z,0.88
2023-02-27T01:46:58.797Z,0.89
2023-02-27T01:51:14.441Z,0.65
2023-02-27T01:55:29.938Z,0.62
2023-02-27T01:59:42.337Z,0.50
2023-02-27T02:04:12.976Z,0.53
2023-02-27T02:08:28.824Z,0.38
2023-02-27T02:12:41.544Z,0.32
2023-02-27T02:17:15.988Z,0.21
2023-02-27T02:22:39.391Z,0.27
2023-02-27T02:27:28.590Z,0.10
2023-02-27T02:31:46.403Z,0.16
2023-02-27T02:36:01.003Z,0.06
2023-02-27T02:40:45.062Z,0.01
2023-02-27T02:45:15.339Z,0.08
2023-02-27T02:49:55.720Z,0.07
2023-02-27T02:54:16.344Z,0.04
2023-02-27T02:58:36.676Z,-0.08
2023-02-27T03:02:55.694Z,-0.10
2023-02-27T03:07:21.162Z,-0.10
2023-02-27T03:11:39.310Z,-0.16
2023-02-27T03:16:02.344Z,-0.28
2023-02-27T03:20:31.639Z,-0.29
2023-02-27T03:24:52.122Z,-0.37
2023-02-27T03:29:10.152Z,-0.44
2023-02-27T03:33:28.195Z,-0.53
2023-02-27T03:37:59.058Z,-0.58
2023-02-27T03:42:23.975Z,-0.72
2023-02-27T03:46:55.298Z,-0.63
2023-02-27T03:51:07.187Z,-0.67
2023-02-27T03:55:30.156Z,-0.64
2023-02-27T03:59:42.173Z,-0.71
2023-02-27T04:04:09.604Z,-0.73
2023-02-27T04:08:58.120Z,-0.66
2023-02-27T04:13:43.850Z,-0.73
2023-02-27T04:18:14.125Z,-0.69
2023-02-27T04:22:44.580Z,-0.76
2023-02-27T04:27:08.725Z,-0.71
2023-02-27T04:31:54.793Z,-0.59
2023-02-27T04:36:36.155Z,-0.58
2023-02-27T04:40:58.094Z,-0.66
2023-02-27T04:45:15.331Z,-0.68
2023-02-27T04:49:31.831Z,-0.68
2023-02-27T04:53:59.061Z,-0.72
2023-02-27T04:58:39.911Z,-0.62
2023-02-27T05:02:56.562Z,-0.71
2023-02-27T05:07:11.278Z,-0.66
2023-02-27T05:11:38.848Z,-0.66
2023-02-27T05:16:01.385Z,-0.67
2023-02-27T05:20:15.038Z,-0.65
2023-02-27T05:24:54.205Z,-0.63
2023-02-27T05:29:13.553Z,-0.58
2023-02-27T05:33:35.092Z,-0.67
2023-02-27T05:37:53.772Z,-0.63
2023-02-27T05:42:13.016Z,-0.59
2023-02-27T05:46:30.408Z,-0.57
2023-02-27T05:50:43.681Z,-0.48
2023-02-27T06:01:10.711Z,-0.47
2023-02-27T06:05:24.807Z,-0.40
2023-02-27T06:09:36.442Z,-0.33
2023-02-27T06:13:48.044Z,-0.32
2023-02-27T06:17:59.690Z,-0.36
2023-02-27T06:22:11.693Z,-0.31
2023-02-27T06:26:24.018Z,-0.27
2023-02-27T06:30:36.182Z,-0.23
2023-02-27T06:34:47.943Z,-0.25
2023-02-27T06:38:59.593Z,-0.23
2023-02-27T06:43:11.186Z,-0.19
2023-02-27T06:47:22.914Z,-0.12
2023-02-27T06:51:34.510Z,-0.02
2023-02-27T06:55:46.161Z,0.06
2023-02-27T06:59:57.932Z,0.05
2023-02-27T07:04:14.261Z,0.15
2023-02-27T07:08:26.064Z,0.39
2023-02-27T07:12:38.532Z,0.45
2023-02-27T07:16:53.986Z,0.37
2023-02-27T07:21:05.816Z,0.63
2023-02-27T07:25:17.594Z,0.81
2023-02-27T07:29:29.278Z,1.05
2023-02-27T07:33:41.894Z,1.38
2023-02-27T07:37:53.598Z,1.68
2023-02-27T07:42:05.604Z,2.26
2023-02-27T07:46:18.799Z,2.59
2023-02-27T07:50:30.470Z,2.88
2023-02-27T07:54:42.153Z,3.85
2023-02-27T07:58:53.773Z,5.54
2023-02-27T08:03:05.624Z,7.13
2023-02-27T08:07:40.167Z,8.45
2023-02-27T08:11:51.875Z,9.31
2023-02-27T08:16:03.642Z,9.89
2023-02-27T08:20:16.281Z,10.61
2023-02-27T08:24:28.272Z,11.45
2023-02-27T08:28:39.912Z,12.12
2023-02-27T08:32:51.495Z,12.68
2023-02-27T08:37:03.652Z,13.18
2023-02-27T08:41:15.397Z,13.84
2023-02-27T08:45:27.329Z,13.89
2023-02-27T08:49:39.023Z,13.87
2023-02-27T08:53:50.857Z,14.25
2023-02-27T08:58:02.594Z,14.37
2023-02-27T09:02:14.263Z,14.63
2023-02-27T09:06:26.561Z,14.60
2023-02-27T09:10:38.363Z,14.85
2023-02-27T09:14:50.013Z,14.72
2023-02-27T09:19:01.630Z,14.94
2023-02-27T09:23:13.288Z,15.08
2023-02-27T09:27:25.934Z,15.59
2023-02-27T09:31:37.705Z,15.53
2023-02-27T09:35:49.500Z,15.92
2023-02-27T09:40:01.365Z,16.28
2023-02-27T09:44:46.351Z,16.44
2023-02-27T09:49:01.454Z,16.50
2023-02-27T09:53:22.805Z,16.86
2023-02-27T09:57:47.155Z,17.12
2023-02-27T10:02:18.870Z,17.11
2023-02-27T10:06:43.868Z,16.68
2023-02-27T10:11:07.407Z,16.89
2023-02-27T10:15:33.220Z,16.76
2023-02-27T10:19:48.382Z,16.73
2023-02-27T10:24:51.117Z,16.55
2023-02-27T10:29:16.546Z,16.43
2023-02-27T10:33:38.799Z,16.18
2023-02-27T10:37:56.447Z,16.08
2023-02-27T10:42:10.849Z,15.83
2023-02-27T10:46:27.504Z,14.62
2023-02-27T10:50:52.017Z,14.01
2023-02-27T10:55:20.209Z,13.08
2023-02-27T10:59:41.948Z,12.63
2023-02-27T11:03:56.780Z,12.08
2023-02-27T11:08:29.430Z,11.80
2023-02-27T11:12:43.496Z,11.82
2023-02-27T11:16:57.853Z,12.03
2023-02-27T11:21:22.717Z,12.23
2023-02-27T11:25:34.393Z,12.29
2023-02-27T11:29:59.071Z,12.01
2023-02-27T11:34:19.564Z,12.23
2023-02-27T11:38:32.767Z,11.78
2023-02-27T11:42:51.285Z,12.00
2023-02-27T11:47:15.914Z,12.41
2023-02-27T11:51:57.305Z,13.13
2023-02-27T11:56:13.343Z,13.03
2023-02-27T12:00:39.505Z,12.81
2023-02-27T12:05:06.641Z,13.09
2023-02-27T12:09:51.654Z,13.22
2023-02-27T12:14:15.605Z,13.13
2023-02-27T12:18:34.181Z,12.98
2023-02-27T12:22:48.722Z,12.59
2023-02-27T12:27:22.636Z,12.59
2023-02-27T12:31:46.424Z,12.15
2023-02-27T12:36:03.462Z,11.67
2023-02-27T12:40:17.425Z,11.85
2023-02-27T12:44:38.089Z,12.23
2023-02-27T12:49:23.492Z,12.82
2023-02-27T12:53:59.168Z,13.25
2023-02-27T12:58:16.860Z,13.20
2023-02-27T13:02:50.258Z,12.32
2023-02-27T13:07:08.507Z,11.60
2023-02-27T13:11:27.582Z,10.98
2023-02-27T13:15:45.378Z,10.53
2023-02-27T13:20:18.806Z,10.29
2023-02-27T13:24:32.208Z,10.32
2023-02-27T13:28:44.500Z,10.46
2023-02-27T13:33:20.918Z,10.49
2023-02-27T13:37:53.937Z,10.22
2023-02-27T13:42:25.358Z,10.23
2023-02-27T13:46:36.970Z,10.16
2023-02-27T13:50:50.319Z,9.91
2023-02-27T13:55:11.861Z,9.72
2023-02-27T13:59:30.771Z,9.68
2023-02-27T14:03:42.604Z,9.46
2023-02-27T14:08:25.282Z,9.28
2023-02-27T14:12:45.871Z,9.20
2023-02-27T14:16:59.010Z,9.08
2023-02-27T14:21:10.587Z,8.96
2023-02-27T14:25:31.981Z,9.05
2023-02-27T14:29:46.580Z,9.19
2023-02-27T14:34:05.063Z,9.23
2023-02-27T14:38:20.495Z,9.04
2023-02-27T14:43:21.938Z,8.90
2023-02-27T14:47:36.642Z,9.04
2023-02-27T14:51:48.712Z,9.30
2023-02-27T14:56:01.076Z,9.21
2023-02-27T15:00:39.444Z,9.13
2023-02-27T15:04:56.065Z,8.71
2023-02-27T15:09:08.228Z,8.71
2023-02-27T15:13:30.298Z,8.71
2023-02-27T15:17:46.113Z,8.91
2023-02-27T15:22:00.167Z,8.83
2023-02-27T15:26:14.281Z,8.58
2023-02-27T15:30:26.008Z,8.40
2023-02-27T15:34:37.687Z,8.27
2023-02-27T15:39:08.376Z,8.18
2023-02-27T15:43:21.738Z,8.08
2023-02-27T15:47:35.821Z,7.90
2023-02-27T15:51:54.886Z,7.96
2023-02-27T15:56:13.034Z,7.93
2023-02-27T16:00:24.993Z,7.48
2023-02-27T16:04:36.667Z,7.67
2023-02-27T16:08:53.874Z,7.41
2023-02-27T16:13:27.639Z,7.60
2023-02-27T16:17:39.180Z,7.42
2023-02-27T16:22:27.209Z,7.48
2023-02-27T16:26:38.789Z,7.38
2023-02-27T16:30:54.213Z,7.34
2023-02-27T16:35:27.505Z,7.35
2023-02-27T16:39:39.003Z,7.23
2023-02-27T16:43:53.064Z,7.22
2023-02-27T16:48:05.209Z,7.18
2023-02-27T16:52:16.780Z,7.06
2023-02-27T16:56:38.117Z,6.95
2023-02-27T17:00:50.216Z,6.96
2023-02-27T17:05:02.743Z,6.85
2023-02-27T17:09:14.377Z,6.76
2023-02-27T17:13:25.950Z,6.67
2023-02-27T17:17:37.526Z,6.53
2023-02-27T17:21:49.397Z,6.50
2023-02-27T17:26:00.953Z,6.38
2023-02-27T17:30:14.026Z,6.32
2023-02-27T17:34:25.568Z,6.28
2023-02-27T17:38:37.331Z,6.18
2023-02-27T17:43:13.770Z,6.11
2023-02-27T17:47:25.499Z,5.96
2023-02-27T17:51:37.167Z,5.88
2023-02-27T17:55:48.660Z,5.80
2023-02-27T18:00:00.130Z,5.74
2023-02-27T18:04:12.646Z,5.67
2023-02-27T18:08:24.344Z,5.65
2023-02-27T18:12:36.830Z,5.58
2023-02-27T18:16:49.755Z,5.47
2023-02-27T18:21:03.956Z,5.27
2023-02-27T18:25:16.806Z,5.31
2023-02-27T18:29:28.354Z,5.32
2023-02-27T18:33:39.863Z,5.18
2023-02-27T18:37:52.104Z,5.14
2023-02-27T18:42:06.446Z,5.19
2023-02-27T18:46:18.641Z,5.17
2023-02-27T18:50:30.775Z,5.02
2023-02-27T18:54:43.142Z,5.16
2023-02-27T18:58:57.996Z,5.02
2023-02-27T19:03:09.608Z,5.10
2023-02-27T19:07:23.320Z,5.06
2023-02-27T19:11:35.726Z,5.13
2023-02-27T19:15:47.461Z,5.15
2023-02-27T19:19:59.477Z,5.05
2023-02-27T19:24:12.248Z,4.97
2023-02-27T19:28:23.761Z,4.92
2023-02-27T19:32:35.281Z,4.81
2023-02-27T19:36:46.894Z,4.87
2023-02-27T19:41:07.153Z,4.90
2023-02-27T19:45:18.872Z,4.97
2023-02-27T19:49:30.470Z,4.96
2023-02-27T19:53:45.877Z,5.01
2023-02-27T19:57:57.444Z,5.12
2023-02-27T20:02:11.463Z,5.10
2023-02-27T20:06:25.320Z,5.04
2023-02-27T20:10:37.246Z,4.94
2023-02-27T20:14:48.831Z,4.83
2023-02-27T20:19:00.355Z,4.79
2023-02-27T20:23:15.320Z,4.67
2023-02-27T20:27:27.359Z,4.48
2023-02-27T20:31:41.213Z,4.36
2023-02-27T20:35:52.798Z,4.28
2023-02-27T20:40:04.786Z,4.16
2023-02-27T20:44:16.470Z,4.04
2023-02-27T20:48:27.990Z,4.04
2023-02-27T20:52:39.652Z,3.88
2023-02-27T20:56:57.480Z,3.90
2023-02-27T21:01:11.573Z,3.75
2023-02-27T21:05:23.219Z,3.70
2023-02-27T21:09:34.855Z,3.58
2023-02-27T21:13:47.192Z,3.63
2023-02-27T21:17:58.771Z,3.56
2023-02-27T21:22:14.483Z,3.46
2023-02-27T21:26:35.229Z,3.45
2023-02-27T21:30:46.950Z,3.39
2023-02-27T21:34:58.583Z,3.35
2023-02-27T21:39:18.143Z,3.28
2023-02-27T21:43:29.729Z,3.25
2023-02-27T21:47:41.316Z,3.25
2023-02-27T21:52:10.466Z,3.16
2023-02-27T21:56:21.985Z,3.14
2023-02-27T22:00:33.673Z,3.09
2023-02-27T22:04:45.273Z,3.06
2023-02-27T22:08:58.011Z,3.01
2023-02-27T22:13:09.591Z,3.00
2023-02-27T22:17:23.277Z,3.00
2023-02-27T22:21:35.946Z,2.97
2023-02-27T22:25:47.535Z,2.95
2023-02-27T22:29:59.123Z,2.86
2023-02-27T22:34:15.113Z,2.82
2023-02-27T22:38:26.752Z,2.82
2023-02-27T22:42:38.420Z,2.77
2023-02-27T22:46:50.200Z,2.75
2023-02-27T22:51:15.401Z,2.74
2023-02-27T22:55:26.955Z,2.73
2023-02-27T22:59:38.695Z,2.65
2023-02-27T23:03:52.038Z,2.63
2023-02-27T23:08:03.669Z,2.55
2023-02-27T23:12:15.214Z,2.49
2023-02-27T23:16:27.069Z,2.52
2023-02-27T23:20:39.289Z,2.50
2023-02-27T23:24:50.927Z,2.54
2023-02-27T23:29:02.593Z,2.49
2023-02-27T23:33:14.201Z,2.54
2023-02-27T23:37:25.758Z,2.52
2023-02-27T23:41:37.376Z,2.45
2023-02-27T23:45:49.012Z,2.40
2023-02-27T23:50:00.597Z,2.44
2023-02-27T23:54:12.248Z,2.40
2023-02-27T23:58:23.983Z,2.59
